createdAt,value
2019-02-10T00:00:56.314Z,-0.10
2019-02-10T00:03:25.173Z,-0.08
2019-02-10T00:05:53.378Z,-0.06
2019-02-10T00:08:21.637Z,-0.08
2019-02-10T00:10:49.928Z,-0.12
2019-02-10T00:13:31.988Z,-0.09
2019-02-10T00:16:01.402Z,-0.13
2019-02-10T00:18:29.573Z,-0.11
2019-02-10T00:20:57.616Z,-0.15
2019-02-10T00:23:25.999Z,-0.15
2019-02-10T00:25:54.129Z,-0.14
2019-02-10T00:28:22.039Z,-0.13
2019-02-10T00:30:50.091Z,-0.09
2019-02-10T00:33:18.075Z,-0.09
2019-02-10T00:35:46.578Z,-0.08
2019-02-10T00:38:14.888Z,-0.11
2019-02-10T00:40:43.008Z,-0.03
2019-02-10T00:43:11.035Z,-0.22
2019-02-10T00:45:39.075Z,-0.19
2019-02-10T00:48:07.176Z,-0.16
2019-02-10T00:50:34.949Z,-0.10
2019-02-10T00:53:03.092Z,-0.04
2019-02-10T00:55:31.012Z,-0.09
2019-02-10T00:57:59.029Z,-0.01
2019-02-10T01:00:27.862Z,-0.03
2019-02-10T01:02:55.784Z,-0.05
2019-02-10T01:05:23.646Z,-0.02
2019-02-10T01:07:51.727Z,-0.02
2019-02-10T01:10:20.390Z,-0.02
2019-02-10T01:12:48.482Z,-0.04
2019-02-10T01:15:16.350Z,-0.04
2019-02-10T01:17:44.336Z,-0.03
2019-02-10T01:20:12.307Z,-0.03
2019-02-10T01:22:40.370Z,-0.05
2019-02-10T01:25:08.663Z,-0.13
2019-02-10T01:27:36.714Z,-0.24
2019-02-10T01:30:05.878Z,-0.22
2019-02-10T01:32:33.977Z,-0.19
2019-02-10T01:35:01.891Z,-0.17
2019-02-10T01:37:33.273Z,-0.16
2019-02-10T01:40:01.422Z,-0.15
2019-02-10T01:42:29.524Z,-0.18
2019-02-10T01:44:57.560Z,-0.18
2019-02-10T01:47:25.805Z,-0.13
2019-02-10T01:49:53.789Z,-0.07
2019-02-10T01:52:21.663Z,-0.09
2019-02-10T01:54:49.536Z,-0.15
2019-02-10T01:57:17.531Z,-0.17
2019-02-10T01:59:45.493Z,-0.13
2019-02-10T02:02:13.882Z,-0.14
2019-02-10T02:04:42.032Z,-0.14
2019-02-10T02:07:10.434Z,-0.09
2019-02-10T02:09:38.360Z,-0.09
2019-02-10T02:12:06.278Z,-0.03
2019-02-10T02:14:34.344Z,-0.18
2019-02-10T02:17:02.228Z,-0.13
2019-02-10T02:19:30.285Z,-0.21
2019-02-10T02:21:58.365Z,-0.13
2019-02-10T02:24:26.562Z,-0.27
2019-02-10T02:26:54.808Z,-0.19
2019-02-10T02:29:22.765Z,-0.19
2019-02-10T02:31:51.048Z,-0.17
2019-02-10T02:34:19.110Z,-0.21
2019-02-10T02:36:47.068Z,-0.35
2019-02-10T02:39:15.189Z,-0.41
2019-02-10T02:41:43.547Z,-0.38
2019-02-10T02:44:11.595Z,-0.37
2019-02-10T02:46:39.761Z,-0.34
2019-02-10T02:49:07.662Z,-0.43
2019-02-10T02:51:35.865Z,-0.31
2019-02-10T02:54:03.810Z,-0.32
2019-02-10T02:56:31.981Z,-0.36
2019-02-10T02:59:01.578Z,-0.34
2019-02-10T03:01:29.819Z,-0.33
2019-02-10T03:03:58.018Z,-0.42
2019-02-10T03:06:28.288Z,-0.31
2019-02-10T03:08:56.388Z,-0.31
2019-02-10T03:11:24.469Z,-0.31
2019-02-10T03:13:52.491Z,-0.27
2019-02-10T03:16:21.770Z,-0.28
2019-02-10T03:18:53.250Z,-0.32
2019-02-10T03:21:19.796Z,-0.31
2019-02-10T03:23:47.602Z,-0.30
2019-02-10T03:26:15.630Z,-0.30
2019-02-10T03:28:43.362Z,-0.28
2019-02-10T03:31:11.287Z,-0.27
2019-02-10T03:33:39.110Z,-0.26
2019-02-10T03:36:06.974Z,-0.26
2019-02-10T03:38:35.177Z,-0.23
2019-02-10T03:41:03.111Z,-0.20
2019-02-10T03:43:31.252Z,-0.15
2019-02-10T03:45:59.082Z,-0.18
2019-02-10T03:48:26.984Z,-0.16
2019-02-10T03:50:54.990Z,-0.14
2019-02-10T03:53:22.834Z,-0.15
2019-02-10T03:55:51.261Z,-0.19
2019-02-10T03:58:19.325Z,-0.20
2019-02-10T04:00:47.398Z,-0.17
2019-02-10T04:03:15.266Z,-0.16
2019-02-10T04:05:43.119Z,-0.18
2019-02-10T04:08:11.109Z,-0.23
2019-02-10T04:10:38.877Z,-0.25
2019-02-10T04:13:06.982Z,-0.24
2019-02-10T04:15:35.334Z,-0.41
2019-02-10T04:18:03.372Z,-0.29
2019-02-10T04:20:31.240Z,-0.26
2019-02-10T04:22:59.307Z,-0.27
2019-02-10T04:25:27.307Z,-0.29
2019-02-10T04:27:55.393Z,-0.18
2019-02-10T04:30:23.532Z,-0.15
2019-02-10T04:32:51.556Z,-0.20
2019-02-10T04:35:19.740Z,-0.19
2019-02-10T04:37:47.749Z,-0.18
2019-02-10T04:40:15.972Z,-0.23
2019-02-10T04:42:44.290Z,-0.21
2019-02-10T04:45:12.289Z,-0.16
2019-02-10T04:47:40.790Z,-0.15
2019-02-10T04:50:08.679Z,-0.17
2019-02-10T04:52:36.749Z,-0.14
2019-02-10T04:55:05.067Z,-0.13
2019-02-10T04:57:32.985Z,-0.14
2019-02-10T05:00:01.168Z,-0.14
2019-02-10T05:02:29.221Z,-0.15
2019-02-10T05:04:57.072Z,-0.15
2019-02-10T05:07:25.068Z,-0.13
2019-02-10T05:09:53.018Z,-0.16
2019-02-10T05:12:21.250Z,-0.18
2019-02-10T05:14:49.272Z,-0.11
2019-02-10T05:17:17.446Z,-0.15
2019-02-10T05:19:45.326Z,-0.16
2019-02-10T05:22:13.297Z,-0.19
2019-02-10T05:24:42.202Z,-0.16
2019-02-10T05:27:10.130Z,-0.15
2019-02-10T05:29:38.142Z,-0.35
2019-02-10T05:32:05.977Z,-0.45
2019-02-10T05:34:34.294Z,-0.46
2019-02-10T05:37:02.455Z,-0.51
2019-02-10T05:39:30.432Z,-0.59
2019-02-10T05:41:58.470Z,-0.65
2019-02-10T05:44:26.264Z,-0.51
2019-02-10T05:46:54.409Z,-0.55
2019-02-10T05:49:22.274Z,-0.53
2019-02-10T05:51:50.644Z,-0.50
2019-02-10T05:54:18.526Z,-0.58
2019-02-10T05:56:46.479Z,-0.53
2019-02-10T05:59:15.417Z,-0.47
2019-02-10T06:01:59.612Z,-0.50
2019-02-10T06:04:27.486Z,-0.50
2019-02-10T06:06:57.457Z,-0.49
2019-02-10T06:09:25.515Z,-0.46
2019-02-10T06:11:53.450Z,-0.47
2019-02-10T06:14:21.416Z,-0.42
2019-02-10T06:16:49.526Z,-0.38
2019-02-10T06:19:17.505Z,-0.37
2019-02-10T06:21:45.483Z,-0.36
2019-02-10T06:24:14.451Z,-0.49
2019-02-10T06:26:42.302Z,-0.45
2019-02-10T06:29:10.480Z,-0.42
2019-02-10T06:31:38.449Z,-0.38
2019-02-10T06:34:06.483Z,-0.39
2019-02-10T06:36:34.508Z,-0.38
2019-02-10T06:39:03.972Z,-0.42
2019-02-10T06:41:31.900Z,-0.39
2019-02-10T06:44:00.134Z,-0.33
2019-02-10T06:46:28.149Z,-0.34
2019-02-10T06:48:56.128Z,-0.41
2019-02-10T06:51:24.203Z,-0.46
2019-02-10T06:53:52.302Z,-0.38
2019-02-10T06:56:20.432Z,-0.25
2019-02-10T06:58:48.408Z,-0.15
2019-02-10T07:01:24.017Z,-0.10
2019-02-10T07:03:57.234Z,-0.07
2019-02-10T07:06:25.421Z,0.00
2019-02-10T07:08:53.358Z,0.05
2019-02-10T07:11:21.379Z,0.16
2019-02-10T07:13:52.018Z,0.20
2019-02-10T07:16:34.283Z,0.24
2019-02-10T07:19:38.958Z,0.31
2019-02-10T07:22:53.332Z,0.37
2019-02-10T07:26:05.402Z,0.44
2019-02-10T07:29:20.777Z,0.55
2019-02-10T07:32:10.296Z,0.64
2019-02-10T07:35:14.504Z,0.74
2019-02-10T07:37:58.841Z,0.82
2019-02-10T07:41:16.592Z,0.85
2019-02-10T07:44:25.859Z,0.95
2019-02-10T07:47:25.660Z,1.03
2019-02-10T07:50:32.850Z,1.13
2019-02-10T07:53:23.628Z,1.33
2019-02-10T07:56:29.332Z,1.52
2019-02-10T07:59:25.294Z,1.63
2019-02-10T08:02:37.472Z,1.71
2019-02-10T08:05:27.796Z,1.75
2019-02-10T08:08:49.475Z,1.81
2019-02-10T08:11:49.474Z,1.80
2019-02-10T08:14:34.744Z,2.02
2019-02-10T08:17:12.319Z,2.14
2019-02-10T08:20:08.488Z,2.23
2019-02-10T08:22:59.372Z,2.45
2019-02-10T08:25:55.717Z,2.45
2019-02-10T08:29:26.135Z,2.58
2019-02-10T08:32:30.790Z,2.64
2019-02-10T08:35:13.784Z,2.73
2019-02-10T08:38:12.900Z,3.01
2019-02-10T08:41:24.977Z,3.07
2019-02-10T08:44:36.721Z,3.10
2019-02-10T08:47:54.247Z,3.15
2019-02-10T08:50:46.162Z,3.04
2019-02-10T08:53:18.488Z,2.97
2019-02-10T08:55:46.805Z,3.11
2019-02-10T08:58:14.676Z,3.09
2019-02-10T09:00:42.753Z,3.22
2019-02-10T09:03:10.938Z,3.29
2019-02-10T09:05:38.905Z,3.38
2019-02-10T09:08:07.003Z,3.35
2019-02-10T09:10:34.970Z,3.46
2019-02-10T09:13:02.925Z,3.55
2019-02-10T09:15:30.982Z,3.69
2019-02-10T09:17:58.855Z,3.67
2019-02-10T09:20:26.770Z,3.87
2019-02-10T09:22:54.790Z,3.86
2019-02-10T09:25:22.900Z,3.94
2019-02-10T09:27:51.060Z,4.02
2019-02-10T09:30:20.042Z,3.89
2019-02-10T09:32:47.840Z,3.94
2019-02-10T09:35:15.698Z,4.09
2019-02-10T09:37:43.862Z,4.18
2019-02-10T09:40:12.086Z,4.22
2019-02-10T09:42:40.015Z,4.36
2019-02-10T09:45:09.861Z,4.54
2019-02-10T09:47:37.988Z,4.65
2019-02-10T09:50:08.819Z,4.86
2019-02-10T09:52:36.899Z,4.83
2019-02-10T09:55:05.007Z,4.81
2019-02-10T09:57:32.936Z,4.90
2019-02-10T10:00:00.814Z,5.13
2019-02-10T10:02:28.729Z,5.07
2019-02-10T10:04:56.742Z,5.36
2019-02-10T10:07:24.808Z,5.51
2019-02-10T10:09:52.687Z,5.52
2019-02-10T10:12:20.737Z,5.34
2019-02-10T10:14:48.756Z,5.19
2019-02-10T10:17:16.649Z,5.07
2019-02-10T10:19:44.659Z,4.89
2019-02-10T10:22:12.910Z,4.84
2019-02-10T10:24:41.073Z,4.72
2019-02-10T10:27:09.051Z,4.64
2019-02-10T10:29:37.173Z,4.48
2019-02-10T10:32:05.223Z,4.73
2019-02-10T10:34:33.573Z,4.61
2019-02-10T10:37:01.840Z,4.63
2019-02-10T10:39:29.781Z,4.57
2019-02-10T10:41:57.653Z,4.46
2019-02-10T10:44:25.623Z,4.46
2019-02-10T10:46:53.655Z,4.64
2019-02-10T10:49:21.648Z,5.00
2019-02-10T10:51:49.492Z,5.48
2019-02-10T10:54:17.359Z,5.93
2019-02-10T10:56:45.277Z,6.55
2019-02-10T10:59:13.251Z,6.47
2019-02-10T11:01:41.262Z,6.81
2019-02-10T11:04:09.261Z,7.07
2019-02-10T11:06:37.134Z,7.42
2019-02-10T11:09:06.371Z,7.86
2019-02-10T11:11:34.376Z,8.27
2019-02-10T11:14:02.263Z,8.32
2019-02-10T11:16:30.142Z,8.55
2019-02-10T11:18:58.125Z,8.84
2019-02-10T11:21:26.153Z,8.51
2019-02-10T11:23:54.172Z,8.39
2019-02-10T11:26:22.327Z,8.61
2019-02-10T11:28:50.396Z,8.85
2019-02-10T11:31:18.486Z,9.24
2019-02-10T11:33:46.519Z,9.64
2019-02-10T11:36:14.753Z,10.42
2019-02-10T11:38:42.646Z,10.60
2019-02-10T11:41:10.937Z,10.34
2019-02-10T11:43:38.880Z,10.79
2019-02-10T11:46:07.016Z,10.76
2019-02-10T11:48:35.120Z,9.89
2019-02-10T11:51:03.064Z,9.78
2019-02-10T11:53:31.277Z,9.76
2019-02-10T11:55:59.549Z,10.25
2019-02-10T11:58:27.677Z,10.36
2019-02-10T12:00:55.628Z,9.96
2019-02-10T12:03:23.558Z,9.35
2019-02-10T12:05:51.360Z,8.92
2019-02-10T12:08:19.568Z,8.84
2019-02-10T12:10:47.448Z,8.78
2019-02-10T12:13:15.372Z,8.47
2019-02-10T12:15:43.180Z,8.40
2019-02-10T12:18:11.277Z,8.44
2019-02-10T12:20:39.088Z,8.46
2019-02-10T12:23:07.189Z,8.50
2019-02-10T12:25:35.203Z,8.75
2019-02-10T12:28:03.463Z,8.53
2019-02-10T12:30:31.239Z,8.57
2019-02-10T12:32:59.412Z,8.50
2019-02-10T12:35:27.556Z,8.60
2019-02-10T12:37:55.731Z,8.36
2019-02-10T12:40:23.908Z,8.35
2019-02-10T12:42:51.894Z,8.17
2019-02-10T12:45:19.741Z,8.32
2019-02-10T12:47:47.666Z,8.25
2019-02-10T12:50:15.943Z,8.18
2019-02-10T12:52:43.984Z,8.33
2019-02-10T12:55:12.200Z,8.43
2019-02-10T12:57:40.067Z,8.45
2019-02-10T13:00:11.745Z,8.27
2019-02-10T13:02:39.773Z,8.14
2019-02-10T13:05:07.654Z,8.06
2019-02-10T13:07:35.518Z,8.25
2019-02-10T13:10:08.248Z,8.13
2019-02-10T13:12:34.037Z,8.10
2019-02-10T13:15:02.429Z,8.20
2019-02-10T13:17:30.474Z,8.31
2019-02-10T13:19:58.552Z,8.44
2019-02-10T13:22:26.647Z,8.66
2019-02-10T13:24:54.696Z,8.69
2019-02-10T13:27:22.746Z,8.74
2019-02-10T13:29:50.581Z,8.56
2019-02-10T13:32:18.474Z,8.57
2019-02-10T13:34:46.369Z,8.58
2019-02-10T13:37:14.758Z,8.54
2019-02-10T13:39:43.123Z,8.73
2019-02-10T13:42:11.167Z,8.92
2019-02-10T13:44:38.966Z,8.92
2019-02-10T13:47:06.784Z,9.07
2019-02-10T13:49:34.701Z,9.02
2019-02-10T13:52:02.656Z,9.02
2019-02-10T13:54:30.809Z,8.80
2019-02-10T13:56:58.555Z,8.79
2019-02-10T13:59:26.650Z,8.35
2019-02-10T14:01:54.617Z,8.22
2019-02-10T14:04:22.580Z,8.41
2019-02-10T14:06:50.343Z,8.52
2019-02-10T14:09:18.367Z,8.40
2019-02-10T14:11:46.400Z,8.18
2019-02-10T14:14:14.463Z,8.05
2019-02-10T14:16:42.376Z,7.87
2019-02-10T14:19:10.146Z,7.87
2019-02-10T14:21:38.182Z,8.03
2019-02-10T14:24:06.117Z,8.05
2019-02-10T14:26:34.156Z,7.91
2019-02-10T14:29:02.150Z,7.89
2019-02-10T14:31:30.176Z,7.88
2019-02-10T14:33:58.135Z,7.97
2019-02-10T14:36:26.229Z,7.93
2019-02-10T14:38:54.162Z,7.86
2019-02-10T14:41:22.333Z,7.84
2019-02-10T14:43:50.250Z,7.81
2019-02-10T14:46:18.194Z,7.76
2019-02-10T14:48:46.284Z,7.84
2019-02-10T14:51:14.128Z,7.86
2019-02-10T14:53:42.176Z,7.73
2019-02-10T14:56:10.239Z,7.70
2019-02-10T14:58:43.141Z,7.75
2019-02-10T15:01:07.696Z,7.69
2019-02-10T15:03:35.729Z,7.60
2019-02-10T15:06:03.795Z,7.57
2019-02-10T15:08:31.368Z,7.69
2019-02-10T15:10:59.304Z,7.73
2019-02-10T15:13:27.180Z,7.73
2019-02-10T15:15:55.231Z,7.70
2019-02-10T15:18:23.104Z,7.64
2019-02-10T15:20:50.969Z,7.49
2019-02-10T15:23:18.841Z,7.51
2019-02-10T15:25:46.857Z,7.54
2019-02-10T15:28:14.882Z,7.64
2019-02-10T15:30:43.012Z,7.65
2019-02-10T15:33:11.178Z,7.56
2019-02-10T15:35:41.134Z,7.64
2019-02-10T15:38:09.158Z,7.68
2019-02-10T15:40:37.230Z,7.57
2019-02-10T15:43:05.082Z,7.63
2019-02-10T15:45:33.220Z,7.54
2019-02-10T15:48:01.168Z,7.48
2019-02-10T15:50:28.989Z,7.41
2019-02-10T15:52:56.959Z,7.38
2019-02-10T15:55:24.700Z,7.38
2019-02-10T15:57:52.692Z,7.25
2019-02-10T16:00:22.818Z,7.12
2019-02-10T16:02:50.955Z,7.17
2019-02-10T16:05:18.911Z,7.20
2019-02-10T16:07:46.916Z,7.15
2019-02-10T16:10:14.889Z,7.15
2019-02-10T16:12:42.950Z,7.07
2019-02-10T16:15:10.977Z,7.06
2019-02-10T16:17:39.159Z,7.07
2019-02-10T16:20:08.911Z,7.06
2019-02-10T16:22:36.906Z,7.02
2019-02-10T16:25:04.789Z,7.05
2019-02-10T16:27:32.827Z,7.09
2019-02-10T16:30:00.716Z,7.10
2019-02-10T16:32:28.728Z,7.11
2019-02-10T16:34:56.677Z,7.11
2019-02-10T16:37:25.430Z,7.18
2019-02-10T16:39:53.657Z,7.19
2019-02-10T16:42:21.499Z,7.32
2019-02-10T16:44:49.587Z,7.40
2019-02-10T16:47:17.524Z,7.52
2019-02-10T16:49:45.507Z,7.60
2019-02-10T16:52:13.580Z,7.60
2019-02-10T16:54:41.912Z,7.58
2019-02-10T16:57:09.925Z,7.62
2019-02-10T16:59:38.020Z,7.60
2019-02-10T17:02:06.043Z,7.63
2019-02-10T17:04:34.095Z,7.72
2019-02-10T17:07:01.988Z,7.77
2019-02-10T17:09:30.038Z,7.82
2019-02-10T17:11:57.840Z,7.85
2019-02-10T17:14:25.670Z,7.86
2019-02-10T17:16:53.649Z,7.88
2019-02-10T17:19:21.684Z,7.84
2019-02-10T17:21:49.794Z,7.80
2019-02-10T17:24:17.798Z,7.80
2019-02-10T17:26:45.626Z,7.69
2019-02-10T17:29:13.886Z,7.57
2019-02-10T17:31:41.935Z,7.41
2019-02-10T17:34:12.078Z,7.35
2019-02-10T17:36:40.065Z,7.29
2019-02-10T17:39:12.416Z,7.22
2019-02-10T17:41:42.661Z,7.10
2019-02-10T17:44:10.578Z,7.08
2019-02-10T17:46:38.427Z,7.05
2019-02-10T17:49:06.395Z,6.77
2019-02-10T17:51:34.413Z,6.51
2019-02-10T17:54:02.799Z,6.31
2019-02-10T17:56:32.016Z,6.28
2019-02-10T17:58:59.977Z,6.27
2019-02-10T18:01:27.959Z,6.21
2019-02-10T18:03:55.877Z,6.29
2019-02-10T18:06:24.910Z,6.42
2019-02-10T18:08:52.800Z,6.41
2019-02-10T18:11:20.665Z,6.49
2019-02-10T18:13:48.492Z,6.60
2019-02-10T18:16:28.051Z,6.85
2019-02-10T18:19:10.768Z,7.19
2019-02-10T18:22:01.146Z,7.57
2019-02-10T18:24:35.655Z,7.97
2019-02-10T18:27:20.176Z,7.99
2019-02-10T18:30:06.420Z,8.12
2019-02-10T18:33:02.736Z,8.15
2019-02-10T18:35:45.464Z,8.24
2019-02-10T18:38:33.002Z,8.30
2019-02-10T18:41:19.937Z,8.35
2019-02-10T18:44:04.019Z,8.36
2019-02-10T18:46:50.037Z,8.33
2019-02-10T18:49:43.468Z,8.32
2019-02-10T18:52:19.775Z,8.29
2019-02-10T18:55:12.808Z,8.27
2019-02-10T18:58:00.374Z,8.28
2019-02-10T19:00:38.136Z,8.26
2019-02-10T19:03:28.114Z,8.26
2019-02-10T19:06:21.598Z,8.30
2019-02-10T19:09:04.193Z,8.37
2019-02-10T19:11:51.013Z,8.40
2019-02-10T19:14:35.337Z,8.33
2019-02-10T19:17:25.731Z,8.41
2019-02-10T19:20:24.961Z,8.36
2019-02-10T19:23:11.039Z,8.29
2019-02-10T19:25:48.726Z,8.27
2019-02-10T19:28:38.709Z,8.25
2019-02-10T19:31:44.873Z,8.22
2019-02-10T19:34:19.729Z,8.05
2019-02-10T19:37:07.443Z,8.07
2019-02-10T19:39:59.108Z,7.97
2019-02-10T19:42:52.865Z,7.90
2019-02-10T19:45:55.352Z,7.88
2019-02-10T19:48:48.790Z,7.84
2019-02-10T19:51:34.988Z,7.82
2019-02-10T19:54:30.686Z,7.81
2019-02-10T19:57:29.804Z,7.78
2019-02-10T20:00:15.970Z,7.82
2019-02-10T20:02:54.194Z,7.76
2019-02-10T20:05:32.426Z,7.77
2019-02-10T20:08:22.358Z,7.67
2019-02-10T20:10:57.447Z,7.60
2019-02-10T20:13:33.757Z,7.54
2019-02-10T20:16:30.368Z,7.52
2019-02-10T20:19:32.662Z,7.44
2019-02-10T20:22:31.897Z,7.32
2019-02-10T20:25:31.630Z,7.14
2019-02-10T20:28:19.278Z,6.91
2019-02-10T20:31:06.659Z,6.89
2019-02-10T20:33:50.833Z,6.84
2019-02-10T20:36:47.186Z,6.95
2019-02-10T20:39:30.651Z,6.94
2019-02-10T20:42:12.307Z,6.95
2019-02-10T20:44:58.198Z,6.94
2019-02-10T20:47:43.883Z,6.91
2019-02-10T20:50:31.510Z,6.90
2019-02-10T20:53:21.582Z,7.01
2019-02-10T20:56:11.780Z,7.15
2019-02-10T20:58:48.449Z,7.12
2019-02-10T21:01:34.548Z,7.09
2019-02-10T21:04:15.330Z,7.13
2019-02-10T21:07:17.986Z,7.12
2019-02-10T21:09:58.580Z,7.16
2019-02-10T21:12:36.948Z,7.10
2019-02-10T21:15:13.896Z,7.05
2019-02-10T21:17:59.613Z,7.04
2019-02-10T21:20:59.556Z,6.92
2019-02-10T21:23:38.270Z,6.81
2019-02-10T21:26:25.790Z,6.83
2019-02-10T21:29:10.962Z,6.83
2019-02-10T21:31:57.280Z,6.84
2019-02-10T21:34:49.285Z,6.81
2019-02-10T21:37:25.108Z,6.78
2019-02-10T21:40:16.973Z,6.84
2019-02-10T21:43:19.608Z,6.79
2019-02-10T21:46:09.327Z,6.77
2019-02-10T21:48:57.090Z,6.70
2019-02-10T21:51:24.997Z,6.69
2019-02-10T21:53:52.894Z,6.55
2019-02-10T21:56:20.981Z,6.54
2019-02-10T21:58:49.005Z,6.70
2019-02-10T22:01:16.944Z,6.71
2019-02-10T22:03:44.925Z,6.65
2019-02-10T22:06:12.898Z,6.56
2019-02-10T22:08:41.037Z,6.40
2019-02-10T22:11:09.051Z,6.54
2019-02-10T22:13:37.014Z,6.58
2019-02-10T22:16:06.233Z,6.58
2019-02-10T22:18:34.314Z,6.63
2019-02-10T22:21:02.311Z,6.66
2019-02-10T22:23:30.391Z,6.69
2019-02-10T22:25:58.517Z,6.84
2019-02-10T22:28:26.543Z,6.87
2019-02-10T22:30:54.599Z,6.87
2019-02-10T22:33:22.768Z,6.86
2019-02-10T22:35:50.870Z,6.83
2019-02-10T22:38:18.779Z,6.85
2019-02-10T22:40:46.841Z,6.82
2019-02-10T22:43:14.750Z,6.81
2019-02-10T22:45:45.811Z,6.83
2019-02-10T22:48:13.848Z,6.87
2019-02-10T22:50:41.816Z,6.82
2019-02-10T22:53:09.986Z,6.81
2019-02-10T22:55:37.941Z,6.80
2019-02-10T22:58:06.122Z,6.78
2019-02-10T23:00:50.443Z,6.77
2019-02-10T23:03:20.378Z,6.77
2019-02-10T23:05:48.353Z,6.80
2019-02-10T23:08:16.457Z,6.79
2019-02-10T23:10:44.518Z,6.79
2019-02-10T23:13:13.989Z,6.72
2019-02-10T23:15:42.099Z,6.77
2019-02-10T23:18:10.082Z,6.78
2019-02-10T23:20:37.869Z,6.74
2019-02-10T23:23:05.698Z,6.68
2019-02-10T23:25:33.906Z,6.62
2019-02-10T23:28:01.929Z,6.61
2019-02-10T23:30:30.913Z,6.68
2019-02-10T23:32:58.823Z,6.63
2019-02-10T23:35:26.761Z,6.65
2019-02-10T23:37:54.681Z,6.50
2019-02-10T23:40:22.625Z,6.43
2019-02-10T23:42:50.740Z,6.40
2019-02-10T23:45:18.849Z,6.35
2019-02-10T23:47:46.783Z,6.29
2019-02-10T23:50:14.959Z,6.25
2019-02-10T23:52:43.243Z,6.24
2019-02-10T23:55:11.284Z,6.18
2019-02-10T23:57:39.115Z,6.23
